Time;durP1;ratioP1;P1;durP2;ratioP2;P2;SDS_P1;SDS_P2;PMS_P1;PMS_P2;Temp;Humidity;BMP_temperature;BMP_pressure;BME280_temperature;BME280_humidity;BME280_pressure;Samples;Min_cycle;Max_cycle;Signal;HPM_P1;HPM_P2
2022/12/08 00:00:36;;;;;;;;;;;;;;;;;;5011595;28;20408;-78
2022/12/08 00:03:02;;;;;;;;;;;;;;;;;;5011214;28;19913;-77
2022/12/08 00:10:57;;;;;;;;;;;;;;;;;;5012810;28;20380;-78
2022/12/08 00:13:23;;;;;;;;;;;;;;;;;;5011252;28;19910;-78
2022/12/08 00:15:49;;;;;;;;;;;;;;;;;;5012375;28;19997;-77
2022/12/08 00:18:15;;;;;;;;;;;;;;;;;;5011156;28;19909;-78
2022/12/08 00:20:41;;;;;;;;;;;;;;;;;;5012434;28;19909;-78
2022/12/08 00:23:07;;;;;;;;;;;;;;;;;;5011023;28;19959;-77
2022/12/08 00:25:33;;;;;;;;;;;;;;;;;;5012406;28;19910;-78
2022/12/08 00:27:59;;;;;;;;;;;;;;;;;;5011005;28;19909;-78
2022/12/08 00:30:24;;;;;;;;;;;;;;;;;;5012413;28;19909;-78
2022/12/08 00:32:50;;;;;;;;;;;;;;;;;;5013680;28;19945;-77
2022/12/08 00:35:16;;;;;;;;;;;;;;;;;;5016035;28;20356;-78
2022/12/08 00:37:42;;;;;;;;;;;;;;;;;;5021340;28;19913;-78
2022/12/08 00:40:08;;;;;;;;;;;;;;;;;;5025968;28;20256;-78
2022/12/08 00:42:34;;;;;;;;;;;;;;;;;;5024591;28;19916;-78
2022/12/08 00:45:00;;;;;;;;;;;;;;;;;;5014849;28;20313;-78
2022/12/08 00:47:26;;;;;;;;;;;;;;;;;;5015823;28;20055;-77
2022/12/08 00:49:51;;;;;;;;;;;;;;;;;;5014137;28;19952;-78
2022/12/08 00:52:17;;;;;;;;;;;;;;;;;;5014469;28;20512;-77
2022/12/08 00:54:43;;;;;;;;;;;;;;;;;;5015256;28;19925;-78
2022/12/08 00:57:10;;;;;;;;;;;;;;;;;;5014249;28;19915;-77
2022/12/08 00:59:36;;;;;;;;;;;;;;;;;;5014403;28;19925;-78
2022/12/08 01:02:02;;;;;;;;;;;;;;;;;;5015513;28;19913;-78
2022/12/08 01:04:28;;;;;;;;;;;;;;;;;;5013991;28;20433;-78
2022/12/08 01:06:53;;;;;;;;;;;;;;;;;;5015417;28;20275;-77
2022/12/08 01:09:19;;;;;;;;;;;;;;;;;;5014173;28;20263;-78
2022/12/08 01:11:45;;;;;;;;;;;;;;;;;;5015512;28;19957;-78
2022/12/08 01:14:11;;;;;;;;;;;;;;;;;;5013823;28;20270;-77
2022/12/08 01:16:39;;;;;;;;;;;;;;;;;;5015135;28;19909;-77
2022/12/08 01:19:05;;;;;;;;;;;;;;;;;;5015236;28;19916;-77
2022/12/08 01:21:31;;;;;;;;;;;;;;;;;;5015264;28;19913;-78
2022/12/08 01:23:57;;;;;;;;;;;;;;;;;;5013801;28;19910;-78
2022/12/08 01:26:23;;;;;;;;;;;;;;;;;;5014980;28;19948;-78
2022/12/08 01:28:49;;;;;;;;;;;;;;;;;;5013660;28;19972;-77
2022/12/08 01:31:15;;;;;;;;;;;;;;;;;;5014964;28;19909;-77
2022/12/08 01:33:41;;;;;;;;;;;;;;;;;;5013479;28;20437;-77
2022/12/08 01:36:07;;;;;;;;;;;;;;;;;;5016691;28;19913;-79
2022/12/08 01:38:33;;;;;;;;;;;;;;;;;;5014527;28;19910;-78
2022/12/08 01:40:59;;;;;;;;;;;;;;;;;;5015670;28;19956;-78
2022/12/08 01:43:24;;;;;;;;;;;;;;;;;;5014314;28;19909;-78
2022/12/08 01:45:50;;;;;;;;;;;;;;;;;;5015255;28;20019;-78
2022/12/08 01:48:18;;;;;;;;;;;;;;;;;;5013872;28;19916;-78
2022/12/08 01:50:44;;;;;;;;;;;;;;;;;;5014881;28;19955;-78
2022/12/08 01:53:09;;;;;;;;;;;;;;;;;;5014273;28;19918;-77
2022/12/08 01:55:35;;;;;;;;;;;;;;;;;;5013178;28;19920;-77
2022/12/08 01:58:01;;;;;;;;;;;;;;;;;;5015137;28;20436;-77
2022/12/08 02:00:27;;;;;;;;;;;;;;;;;;5013159;28;19909;-77
2022/12/08 02:02:53;;;;;;;;;;;;;;;;;;5014408;28;19909;-77
2022/12/08 02:05:19;;;;;;;;;;;;;;;;;;5013471;28;19910;-77
2022/12/08 02:07:45;;;;;;;;;;;;;;;;;;5013774;28;19909;-78
2022/12/08 02:10:11;;;;;;;;;;;;;;;;;;5014204;28;19916;-78
2022/12/08 02:12:36;;;;;;;;;;;;;;;;;;5014095;28;19916;-78
2022/12/08 02:15:02;;;;;;;;;;;;;;;;;;5014066;28;19943;-78
2022/12/08 02:17:28;;;;;;;;;;;;;;;;;;5012941;28;19916;-78
2022/12/08 02:19:54;;;;;;;;;;;;;;;;;;5014001;28;19952;-77
2022/12/08 02:22:20;;;;;;;;;;;;;;;;;;5012541;28;19909;-77
2022/12/08 02:24:46;;;;;;;;;;;;;;;;;;5013946;28;19913;-77
2022/12/08 02:27:12;;;;;;;;;;;;;;;;;;5012793;28;19916;-77
2022/12/08 02:29:38;;;;;;;;;;;;;;;;;;5012451;28;19910;-78
2022/12/08 02:32:04;;;;;;;;;;;;;;;;;;5014218;28;19910;-78
2022/12/08 02:34:30;;;;;;;;;;;;;;;;;;5012351;28;20466;-77
2022/12/08 02:36:56;;;;;;;;;;;;;;;;;;5012448;28;19916;-77
2022/12/08 02:39:22;;;;;;;;;;;;;;;;;;5012400;28;20440;-77
2022/12/08 02:41:48;;;;;;;;;;;;;;;;;;5013640;28;19909;-77
2022/12/08 02:44:13;;;;;;;;;;;;;;;;;;5013473;28;19909;-78
2022/12/08 02:46:39;;;;;;;;;;;;;;;;;;5013442;28;20255;-77
2022/12/08 02:49:05;;;;;;;;;;;;;;;;;;5013369;28;19996;-77
2022/12/08 02:51:31;;;;;;;;;;;;;;;;;;5012955;28;20329;-78
2022/12/08 02:53:57;;;;;;;;;;;;;;;;;;5012049;28;19925;-77
2022/12/08 02:56:23;;;;;;;;;;;;;;;;;;5011701;28;20472;-77
2022/12/08 02:58:49;;;;;;;;;;;;;;;;;;5011988;28;19909;-78
2022/12/08 03:01:15;;;;;;;;;;;;;;;;;;5013275;28;19997;-78
2022/12/08 03:03:41;;;;;;;;;;;;;;;;;;5013312;28;20455;-77
2022/12/08 03:06:08;;;;;;;;;;;;;;;;;;5012996;28;19910;-77
2022/12/08 03:08:34;;;;;;;;;;;;;;;;;;5013227;28;19924;-77
2022/12/08 03:10:59;;;;;;;;;;;;;;;;;;5013207;28;20438;-78
2022/12/08 03:13:25;;;;;;;;;;;;;;;;;;5011789;28;19941;-78
2022/12/08 03:15:51;;;;;;;;;;;;;;;;;;5011537;28;19913;-78
2022/12/08 03:18:17;;;;;;;;;;;;;;;;;;5011656;28;19940;-78
2022/12/08 03:20:43;;;;;;;;;;;;;;;;;;5012849;28;19909;-77
2022/12/08 03:23:09;;;;;;;;;;;;;;;;;;5011484;28;19916;-77
2022/12/08 03:25:36;;;;;;;;;;;;;;;;;;5012832;28;20389;-78
2022/12/08 03:28:02;;;;;;;;;;;;;;;;;;5011556;28;19948;-78
2022/12/08 03:30:28;;;;;;;;;;;;;;;;;;5012889;28;20385;-78
2022/12/08 03:32:54;;;;;;;;;;;;;;;;;;5011523;28;19915;-77
2022/12/08 03:35:20;;;;;;;;;;;;;;;;;;5012640;28;20439;-77
2022/12/08 03:37:46;;;;;;;;;;;;;;;;;;5012063;28;19916;-78
2022/12/08 03:40:12;;;;;;;;;;;;;;;;;;5011258;28;19910;-77
2022/12/08 03:42:37;;;;;;;;;;;;;;;;;;5011190;28;20110;-78
2022/12/08 03:45:03;;;;;;;;;;;;;;;;;;5012481;28;19910;-77
2022/12/08 03:47:29;;;;;;;;;;;;;;;;;;5011165;28;19910;-77
2022/12/08 03:49:55;;;;;;;;;;;;;;;;;;5012300;28;19910;-77
2022/12/08 03:52:21;;;;;;;;;;;;;;;;;;5012714;28;19910;-78
2022/12/08 03:54:47;;;;;;;;;;;;;;;;;;5012487;28;19924;-77
2022/12/08 03:57:13;;;;;;;;;;;;;;;;;;5010864;28;19924;-77
2022/12/08 03:59:39;;;;;;;;;;;;;;;;;;5011131;28;19971;-78
2022/12/08 04:02:04;;;;;;;;;;;;;;;;;;5011193;28;20027;-78
2022/12/08 04:04:30;;;;;;;;;;;;;;;;;;5012051;28;19915;-77
2022/12/08 04:06:56;;;;;;;;;;;;;;;;;;5013628;28;19916;-77
2022/12/08 04:09:22;;;;;;;;;;;;;;;;;;5014998;28;20029;-77
2022/12/08 04:11:48;;;;;;;;;;;;;;;;;;5015321;28;19910;-77
2022/12/08 04:14:14;;;;;;;;;;;;;;;;;;5016464;28;20329;-77
2022/12/08 04:16:40;;;;;;;;;;;;;;;;;;5026071;28;19909;-78
2022/12/08 04:19:06;;;;;;;;;;;;;;;;;;5027550;28;19909;-78
2022/12/08 04:21:32;;;;;;;;;;;;;;;;;;5019876;28;20404;-77
2022/12/08 04:23:57;;;;;;;;;;;;;;;;;;5015141;28;19975;-78
2022/12/08 04:26:23;;;;;;;;;;;;;;;;;;5015923;28;20377;-78
2022/12/08 04:28:49;;;;;;;;;;;;;;;;;;5016066;28;19916;-77
2022/12/08 04:31:15;;;;;;;;;;;;;;;;;;5015897;28;19909;-77
2022/12/08 04:33:41;;;;;;;;;;;;;;;;;;5015880;28;19910;-78
2022/12/08 04:36:07;;;;;;;;;;;;;;;;;;5015492;28;20011;-77
2022/12/08 04:38:33;;;;;;;;;;;;;;;;;;5016009;28;19914;-77
2022/12/08 04:40:59;;;;;;;;;;;;;;;;;;5015721;28;19933;-78
2022/12/08 04:43:24;;;;;;;;;;;;;;;;;;5014530;28;19909;-77
2022/12/08 04:45:50;;;;;;;;;;;;;;;;;;5015752;28;19924;-78
2022/12/08 04:48:16;;;;;;;;;;;;;;;;;;5014094;28;19909;-77
2022/12/08 04:50:42;;;;;;;;;;;;;;;;;;5015571;28;19960;-77
2022/12/08 04:53:08;;;;;;;;;;;;;;;;;;5015346;28;20345;-78
2022/12/08 04:55:34;;;;;;;;;;;;;;;;;;5014215;28;20374;-78
2022/12/08 04:58:00;;;;;;;;;;;;;;;;;;5015501;28;20000;-78
2022/12/08 05:00:26;;;;;;;;;;;;;;;;;;5015402;28;19910;-78
2022/12/08 05:02:52;;;;;;;;;;;;;;;;;;5015316;28;19910;-78
2022/12/08 05:05:17;;;;;;;;;;;;;;;;;;5013801;28;19910;-77
2022/12/08 05:07:43;;;;;;;;;;;;;;;;;;5014083;28;20004;-77
2022/12/08 05:10:09;;;;;;;;;;;;;;;;;;5014002;28;19910;-78
2022/12/08 05:12:35;;;;;;;;;;;;;;;;;;5013813;28;20398;-78
2022/12/08 05:15:01;;;;;;;;;;;;;;;;;;5015175;28;19914;-77
2022/12/08 05:17:27;;;;;;;;;;;;;;;;;;5014853;28;19925;-76
2022/12/08 05:19:53;;;;;;;;;;;;;;;;;;5013782;28;20003;-78
2022/12/08 05:22:19;;;;;;;;;;;;;;;;;;5013946;28;20323;-77
2022/12/08 05:24:45;;;;;;;;;;;;;;;;;;5014927;28;19909;-77
2022/12/08 05:27:10;;;;;;;;;;;;;;;;;;5015085;28;19964;-77
2022/12/08 05:29:36;;;;;;;;;;;;;;;;;;5014893;28;19913;-77
2022/12/08 05:32:02;;;;;;;;;;;;;;;;;;5013775;28;19956;-78
2022/12/08 05:34:28;;;;;;;;;;;;;;;;;;5013437;28;19913;-77
2022/12/08 05:36:54;;;;;;;;;;;;;;;;;;5014642;28;19909;-78
2022/12/08 05:39:20;;;;;;;;;;;;;;;;;;5013559;28;19909;-77
2022/12/08 05:41:46;;;;;;;;;;;;;;;;;;5014782;28;19910;-78
2022/12/08 05:44:12;;;;;;;;;;;;;;;;;;5013393;28;19909;-77
2022/12/08 05:46:37;;;;;;;;;;;;;;;;;;5014520;28;19974;-78
2022/12/08 05:49:03;;;;;;;;;;;;;;;;;;5013344;28;19916;-77
2022/12/08 05:51:29;;;;;;;;;;;;;;;;;;5014414;28;19944;-77
2022/12/08 05:53:55;;;;;;;;;;;;;;;;;;5013236;28;20397;-77
2022/12/08 05:56:21;;;;;;;;;;;;;;;;;;5014290;28;19920;-77
2022/12/08 05:58:47;;;;;;;;;;;;;;;;;;5013097;28;19909;-78
2022/12/08 06:01:13;;;;;;;;;;;;;;;;;;5013039;28;20374;-77
2022/12/08 06:03:39;;;;;;;;;;;;;;;;;;5014278;28;19913;-77
2022/12/08 06:06:04;;;;;;;;;;;;;;;;;;5014254;28;20004;-78
2022/12/08 06:08:30;;;;;;;;;;;;;;;;;;5014100;28;19925;-78
2022/12/08 06:10:56;;;;;;;;;;;;;;;;;;5014167;28;19909;-78
2022/12/08 06:13:22;;;;;;;;;;;;;;;;;;5014159;28;19913;-78
2022/12/08 06:15:48;;;;;;;;;;;;;;;;;;5013889;28;19913;-77
2022/12/08 06:18:14;;;;;;;;;;;;;;;;;;5013927;28;19909;-78
2022/12/08 06:20:40;;;;;;;;;;;;;;;;;;5014030;28;20008;-78
2022/12/08 06:23:06;;;;;;;;;;;;;;;;;;5012614;28;19916;-76
2022/12/08 06:25:32;;;;;;;;;;;;;;;;;;5013755;28;19936;-77
2022/12/08 06:27:58;;;;;;;;;;;;;;;;;;5013957;28;20321;-78
2022/12/08 06:30:24;;;;;;;;;;;;;;;;;;5013048;28;20363;-78
2022/12/08 06:32:50;;;;;;;;;;;;;;;;;;5013842;28;19932;-77
2022/12/08 06:35:16;;;;;;;;;;;;;;;;;;5013518;28;19914;-78
2022/12/08 06:37:42;;;;;;;;;;;;;;;;;;5013554;28;19937;-78
2022/12/08 06:40:08;;;;;;;;;;;;;;;;;;5013930;28;19964;-78
2022/12/08 06:42:43;;;;;;;;;;;;;;;;;;5012946;28;19967;-77
2022/12/08 06:45:09;;;;;;;;;;;;;;;;;;5014273;28;20004;-77
2022/12/08 06:47:35;;;;;;;;;;;;;;;;;;5014438;28;19952;-77
2022/12/08 06:50:01;;;;;;;;;;;;;;;;;;5013534;28;19921;-77
2022/12/08 06:52:27;;;;;;;;;;;;;;;;;;5012732;28;19949;-77
2022/12/08 06:54:52;;;;;;;;;;;;;;;;;;5013270;28;19918;-77
2022/12/08 06:57:18;;;;;;;;;;;;;;;;;;5013372;28;19910;-77
2022/12/08 06:59:44;;;;;;;;;;;;;;;;;;5013168;28;19910;-78
2022/12/08 07:02:10;;;;;;;;;;;;;;;;;;5012168;28;20004;-77
2022/12/08 07:04:36;;;;;;;;;;;;;;;;;;5013145;28;19915;-77
2022/12/08 07:07:02;;;;;;;;;;;;;;;;;;5013187;28;19917;-77
2022/12/08 07:09:28;;;;;;;;;;;;;;;;;;5013136;28;19955;-77
2022/12/08 07:11:54;;;;;;;;;;;;;;;;;;5011870;28;20441;-77
2022/12/08 07:14:23;;;;;;;;;;;;;;;;;;5011615;28;19909;-77
2022/12/08 07:16:49;;;;;;;;;;;;;;;;;;5013153;28;20001;-77
2022/12/08 07:19:15;;;;;;;;;;;;;;;;;;5011757;28;19949;-78
2022/12/08 07:21:41;;;;;;;;;;;;;;;;;;5011749;28;19929;-77
2022/12/08 07:24:07;;;;;;;;;;;;;;;;;;5013047;28;19910;-77
2022/12/08 07:26:33;;;;;;;;;;;;;;;;;;5011707;28;19944;-77
2022/12/08 07:28:59;;;;;;;;;;;;;;;;;;5011409;28;20362;-78
2022/12/08 07:31:25;;;;;;;;;;;;;;;;;;5011687;28;19956;-78
2022/12/08 07:33:51;;;;;;;;;;;;;;;;;;5012796;28;19963;-76
2022/12/08 07:36:17;;;;;;;;;;;;;;;;;;5011437;28;19952;-77
2022/12/08 07:38:43;;;;;;;;;;;;;;;;;;5012607;28;19913;-77
2022/12/08 07:41:09;;;;;;;;;;;;;;;;;;5012809;28;19910;-77
2022/12/08 07:43:35;;;;;;;;;;;;;;;;;;5012659;28;19909;-77
2022/12/08 07:46:00;;;;;;;;;;;;;;;;;;5012588;28;19910;-77
2022/12/08 07:48:26;;;;;;;;;;;;;;;;;;5012543;28;20036;-77
2022/12/08 07:50:52;;;;;;;;;;;;;;;;;;5016007;28;19925;-77
2022/12/08 07:53:18;;;;;;;;;;;;;;;;;;5028745;28;19937;-77
2022/12/08 07:55:44;;;;;;;;;;;;;;;;;;5030888;28;19921;-77
2022/12/08 07:58:10;;;;;;;;;;;;;;;;;;5031369;28;19995;-78
2022/12/08 08:00:36;;;;;;;;;;;;;;;;;;5043111;28;19909;-77
2022/12/08 08:03:02;;;;;;;;;;;;;;;;;;5043153;28;20377;-78
2022/12/08 08:05:27;;;;;;;;;;;;;;;;;;5035538;28;19905;-77
2022/12/08 08:07:53;;;;;;;;;;;;;;;;;;5032221;28;20325;-77
2022/12/08 08:10:19;;;;;;;;;;;;;;;;;;5033009;28;19905;-77
2022/12/08 08:12:46;;;;;;;;;;;;;;;;;;5032092;28;20282;-77
2022/12/08 08:15:12;;;;;;;;;;;;;;;;;;5030829;28;19920;-77
2022/12/08 08:17:38;;;;;;;;;;;;;;;;;;5032144;28;19909;-77
2022/12/08 08:20:05;;;;;;;;;;;;;;;;;;5030955;28;19909;-76
2022/12/08 08:22:31;;;;;;;;;;;;;;;;;;5032085;28;19913;-77
2022/12/08 08:24:57;;;;;;;;;;;;;;;;;;5031953;28;19909;-77
2022/12/08 08:27:23;;;;;;;;;;;;;;;;;;5030661;28;20456;-77
2022/12/08 08:29:49;;;;;;;;;;;;;;;;;;5031965;28;19949;-76
2022/12/08 08:32:15;;;;;;;;;;;;;;;;;;5030886;28;19932;-77
2022/12/08 08:34:41;;;;;;;;;;;;;;;;;;5030282;28;20011;-77
2022/12/08 08:37:07;;;;;;;;;;;;;;;;;;5030592;28;19909;-77
2022/12/08 08:39:33;;;;;;;;;;;;;;;;;;5031855;28;20279;-77
2022/12/08 08:41:59;;;;;;;;;;;;;;;;;;5031934;28;19955;-77
2022/12/08 08:44:25;;;;;;;;;;;;;;;;;;5030239;28;19935;-76
2022/12/08 08:46:51;;;;;;;;;;;;;;;;;;5030203;28;20297;-77
2022/12/08 08:49:17;;;;;;;;;;;;;;;;;;5031649;28;19909;-76
2022/12/08 08:51:43;;;;;;;;;;;;;;;;;;5031873;28;19914;-76
2022/12/08 08:54:09;;;;;;;;;;;;;;;;;;5034626;28;19917;-77
2022/12/08 08:56:35;;;;;;;;;;;;;;;;;;5033737;28;20309;-76
2022/12/08 08:59:01;;;;;;;;;;;;;;;;;;5035169;28;19909;-76
2022/12/08 09:01:27;;;;;;;;;;;;;;;;;;5035344;28;20384;-77
2022/12/08 09:03:54;;;;;;;;;;;;;;;;;;5035154;28;19959;-76
2022/12/08 09:06:19;;;;;;;;;;;;;;;;;;5035125;28;19909;-77
2022/12/08 09:08:45;;;;;;;;;;;;;;;;;;5034977;28;19910;-76
2022/12/08 09:11:11;;;;;;;;;;;;;;;;;;5034970;28;20377;-77
2022/12/08 09:13:37;;;;;;;;;;;;;;;;;;5034561;28;19916;-76
2022/12/08 09:16:03;;;;;;;;;;;;;;;;;;5034532;28;20353;-77
2022/12/08 09:18:29;;;;;;;;;;;;;;;;;;5034690;28;20399;-77
2022/12/08 09:20:55;;;;;;;;;;;;;;;;;;5033554;28;19949;-77
2022/12/08 09:23:21;;;;;;;;;;;;;;;;;;5034703;28;19910;-77
2022/12/08 09:25:46;;;;;;;;;;;;;;;;;;5034556;28;19909;-77
2022/12/08 09:28:12;;;;;;;;;;;;;;;;;;5034570;28;19913;-77
2022/12/08 09:30:38;;;;;;;;;;;;;;;;;;5034166;28;19909;-77
2022/12/08 09:33:04;;;;;;;;;;;;;;;;;;5034768;28;20050;-77
2022/12/08 09:35:30;;;;;;;;;;;;;;;;;;5034334;28;19913;-76
2022/12/08 09:37:56;;;;;;;;;;;;;;;;;;5034408;28;19909;-76
2022/12/08 09:40:22;;;;;;;;;;;;;;;;;;5034487;28;20404;-76
2022/12/08 09:42:48;;;;;;;;;;;;;;;;;;5033834;28;19948;-76
2022/12/08 09:45:14;;;;;;;;;;;;;;;;;;5034532;28;19940;-76
2022/12/08 09:47:40;;;;;;;;;;;;;;;;;;5033020;28;19909;-76
2022/12/08 09:50:06;;;;;;;;;;;;;;;;;;5032675;28;19909;-76
2022/12/08 09:52:32;;;;;;;;;;;;;;;;;;5033546;28;20008;-78
2022/12/08 09:54:58;;;;;;;;;;;;;;;;;;5037361;28;19904;-79
2022/12/08 09:57:24;;;;;;;;;;;;;;;;;;5036467;28;20020;-77
2022/12/08 09:59:50;;;;;;;;;;;;;;;;;;5034873;28;19952;-77
2022/12/08 10:02:16;;;;;;;;;;;;;;;;;;5040022;28;20390;-76
2022/12/08 10:04:42;;;;;;;;;;;;;;;;;;5033998;28;19949;-77
2022/12/08 10:07:07;;;;;;;;;;;;;;;;;;5034235;28;19910;-76
2022/12/08 10:09:33;;;;;;;;;;;;;;;;;;5032250;28;19909;-76
2022/12/08 10:11:59;;;;;;;;;;;;;;;;;;5033002;28;19913;-76
2022/12/08 10:14:25;;;;;;;;;;;;;;;;;;5033731;28;20011;-76
2022/12/08 10:16:51;;;;;;;;;;;;;;;;;;5033787;28;19949;-76
2022/12/08 10:19:17;;;;;;;;;;;;;;;;;;5034127;28;19909;-76
2022/12/08 10:21:43;;;;;;;;;;;;;;;;;;5032525;28;20444;-75
2022/12/08 10:24:09;;;;;;;;;;;;;;;;;;5025915;28;19928;-76
2022/12/08 10:26:35;;;;;;;;;;;;;;;;;;5031697;28;20302;-76
2022/12/08 10:29:01;;;;;;;;;;;;;;;;;;5031995;28;19909;-75
2022/12/08 10:31:27;;;;;;;;;;;;;;;;;;5020294;28;19909;-77
2022/12/08 10:33:53;;;;;;;;;;;;;;;;;;5012473;28;19910;-76
2022/12/08 10:36:19;;;;;;;;;;;;;;;;;;5013599;28;19914;-76
2022/12/08 10:38:45;;;;;;;;;;;;;;;;;;5013014;28;19909;-75
2022/12/08 10:41:11;;;;;;;;;;;;;;;;;;5013552;28;19956;-75
2022/12/08 10:43:37;;;;;;;;;;;;;;;;;;5012600;28;19996;-75
2022/12/08 10:46:02;;;;;;;;;;;;;;;;;;5013586;28;19914;-75
2022/12/08 10:48:30;;;;;;;;;;;;;;;;;;5015265;28;20425;-75
2022/12/08 10:50:56;;;;;;;;;;;;;;;;;;5014853;28;19956;-74
2022/12/08 10:53:21;;;;;;;;;;;;;;;;;;5013156;28;19917;-75
2022/12/08 10:55:47;;;;;;;;;;;;;;;;;;5011950;28;20382;-76
2022/12/08 10:58:13;;;;;;;;;;;;;;;;;;5013261;28;19909;-76
2022/12/08 11:00:39;;;;;;;;;;;;;;;;;;5013318;28;19983;-76
2022/12/08 11:03:05;;;;;;;;;;;;;;;;;;5011968;28;19910;-76
2022/12/08 11:05:31;;;;;;;;;;;;;;;;;;5013005;28;20302;-76
2022/12/08 11:07:57;;;;;;;;;;;;;;;;;;5012923;28;19918;-76
2022/12/08 11:10:23;;;;;;;;;;;;;;;;;;5011845;28;20271;-76
2022/12/08 11:12:49;;;;;;;;;;;;;;;;;;5013020;28;19933;-76
2022/12/08 11:15:15;;;;;;;;;;;;;;;;;;5012541;28;19921;-76
2022/12/08 11:17:43;;;;;;;;;;;;;;;;;;5012837;28;19910;-76
2022/12/08 11:20:09;;;;;;;;;;;;;;;;;;5012952;28;19909;-76
2022/12/08 11:22:34;;;;;;;;;;;;;;;;;;5011948;28;19917;-76
2022/12/08 11:25:01;;;;;;;;;;;;;;;;;;5012633;28;19909;-76
2022/12/08 11:27:27;;;;;;;;;;;;;;;;;;5012952;28;19910;-76
2022/12/08 11:29:53;;;;;;;;;;;;;;;;;;5012657;28;19920;-75
2022/12/08 11:32:18;;;;;;;;;;;;;;;;;;5013824;28;19917;-80
2022/12/08 11:34:44;;;;;;;;;;;;;;;;;;5013053;28;19921;-77
2022/12/08 11:37:10;;;;;;;;;;;;;;;;;;5011406;28;20359;-77
2022/12/08 11:39:36;;;;;;;;;;;;;;;;;;5012298;28;19914;-77
2022/12/08 11:42:02;;;;;;;;;;;;;;;;;;5011645;28;20302;-78
2022/12/08 11:44:28;;;;;;;;;;;;;;;;;;5013033;28;19910;-78
2022/12/08 11:46:55;;;;;;;;;;;;;;;;;;5023837;28;19944;-78
2022/12/08 11:49:21;;;;;;;;;;;;;;;;;;5025512;28;19910;-78
2022/12/08 11:51:47;;;;;;;;;;;;;;;;;;5011646;28;19920;-78
2022/12/08 11:54:13;;;;;;;;;;;;;;;;;;5012453;28;19921;-78
2022/12/08 11:56:39;;;;;;;;;;;;;;;;;;5011216;28;19925;-78
2022/12/08 11:59:05;;;;;;;;;;;;;;;;;;5012491;28;19914;-78
2022/12/08 12:01:31;;;;;;;;;;;;;;;;;;5011329;28;19925;-78
2022/12/08 12:03:56;;;;;;;;;;;;;;;;;;5011094;28;20341;-78
2022/12/08 12:06:22;;;;;;;;;;;;;;;;;;5012438;28;19916;-78
2022/12/08 12:08:48;;;;;;;;;;;;;;;;;;5011022;28;20376;-77
2022/12/08 12:12:11;;;;;;;;;;;;;;;;;;5011224;28;19909;-78
2022/12/08 12:14:00;;;;;;;;;;;;;;;;;;5012397;28;19917;-78
2022/12/08 12:16:26;;;;;;;;;;;;;;;;;;5012396;28;20337;-78
2022/12/08 12:18:52;;;;;;;;;;;;;;;;;;5012527;28;19913;-78
2022/12/08 12:21:18;;;;;;;;;;;;;;;;;;5011227;28;20294;-78
2022/12/08 12:23:44;;;;;;;;;;;;;;;;;;5010990;28;20333;-79
2022/12/08 12:26:10;;;;;;;;;;;;;;;;;;5012450;28;19914;-78
2022/12/08 12:28:36;;;;;;;;;;;;;;;;;;5014489;28;19913;-78
2022/12/08 12:31:01;;;;;;;;;;;;;;;;;;5016162;28;19910;-78
2022/12/08 12:33:27;;;;;;;;;;;;;;;;;;5015957;28;20385;-78
2022/12/08 12:35:53;;;;;;;;;;;;;;;;;;5015934;28;19924;-77
2022/12/08 12:41:04;;;;;;;;;;;;;;;;;;5016017;28;20004;-78
2022/12/08 12:43:29;;;;;;;;;;;;;;;;;;5015809;28;20008;-78
2022/12/08 12:45:55;;;;;;;;;;;;;;;;;;5014582;28;20329;-78
2022/12/08 12:48:21;;;;;;;;;;;;;;;;;;5015711;28;19909;-78
2022/12/08 12:50:47;;;;;;;;;;;;;;;;;;5015874;28;19964;-78
2022/12/08 12:53:13;;;;;;;;;;;;;;;;;;5015569;28;20385;-78
2022/12/08 12:55:39;;;;;;;;;;;;;;;;;;5015560;28;19957;-78
2022/12/08 12:58:05;;;;;;;;;;;;;;;;;;5014429;28;20263;-78
2022/12/08 13:00:31;;;;;;;;;;;;;;;;;;5015471;28;19917;-78
2022/12/08 13:02:57;;;;;;;;;;;;;;;;;;5015565;28;20278;-77
2022/12/08 13:05:22;;;;;;;;;;;;;;;;;;5012329;28;19916;-77
2022/12/08 13:07:48;;;;;;;;;;;;;;;;;;5014519;28;19957;-77
2022/12/08 13:10:14;;;;;;;;;;;;;;;;;;5014822;28;20359;-75
2022/12/08 13:12:40;;;;;;;;;;;;;;;;;;5014885;28;19910;-76
2022/12/08 13:15:06;;;;;;;;;;;;;;;;;;5013867;28;20366;-76
2022/12/08 13:17:32;;;;;;;;;;;;;;;;;;5013855;28;19960;-76
2022/12/08 13:19:58;;;;;;;;;;;;;;;;;;5013953;28;20466;-76
2022/12/08 13:22:24;;;;;;;;;;;;;;;;;;5014938;28;19910;-76
2022/12/08 13:24:50;;;;;;;;;;;;;;;;;;5014880;28;19917;-75
2022/12/08 13:27:15;;;;;;;;;;;;;;;;;;5014850;28;19960;-75
2022/12/08 13:29:41;;;;;;;;;;;;;;;;;;5014911;28;19910;-76
2022/12/08 13:32:08;;;;;;;;;;;;;;;;;;5014909;28;20004;-76
2022/12/08 13:34:34;;;;;;;;;;;;;;;;;;5014637;28;20366;-76
2022/12/08 13:37:00;;;;;;;;;;;;;;;;;;5014845;28;19933;-76
2022/12/08 13:39:26;;;;;;;;;;;;;;;;;;5014523;28;19910;-77
2022/12/08 13:41:52;;;;;;;;;;;;;;;;;;5014674;28;20271;-76
2022/12/08 13:44:17;;;;;;;;;;;;;;;;;;5014653;28;19909;-77
2022/12/08 13:46:43;;;;;;;;;;;;;;;;;;5014147;28;19920;-77
2022/12/08 13:49:09;;;;;;;;;;;;;;;;;;5014243;28;20016;-77
2022/12/08 13:51:35;;;;;;;;;;;;;;;;;;5014028;28;20283;-77
2022/12/08 13:54:01;;;;;;;;;;;;;;;;;;5013124;28;19918;-77
2022/12/08 13:56:27;;;;;;;;;;;;;;;;;;5012912;28;19914;-78
2022/12/08 13:58:53;;;;;;;;;;;;;;;;;;5014055;28;20286;-77
2022/12/08 14:01:19;;;;;;;;;;;;;;;;;;5014253;28;19997;-77
2022/12/08 14:03:45;;;;;;;;;;;;;;;;;;5012940;28;19932;-77
2022/12/08 14:06:10;;;;;;;;;;;;;;;;;;5012804;28;19906;-78
2022/12/08 14:08:37;;;;;;;;;;;;;;;;;;5014039;28;19909;-78
2022/12/08 14:11:03;;;;;;;;;;;;;;;;;;5012314;28;19964;-78
2022/12/08 14:13:29;;;;;;;;;;;;;;;;;;5012695;28;19941;-78
2022/12/08 14:15:55;;;;;;;;;;;;;;;;;;5014289;28;20366;-76
2022/12/08 14:18:20;;;;;;;;;;;;;;;;;;5013813;28;19909;-77
2022/12/08 14:20:47;;;;;;;;;;;;;;;;;;5013621;28;19964;-77
2022/12/08 14:23:12;;;;;;;;;;;;;;;;;;5014401;28;19909;-77
2022/12/08 14:25:40;;;;;;;;;;;;;;;;;;5012599;28;19910;-77
2022/12/08 14:28:05;;;;;;;;;;;;;;;;;;5012457;28;20003;-75
2022/12/08 14:30:31;;;;;;;;;;;;;;;;;;5014037;28;19917;-76
2022/12/08 14:32:57;;;;;;;;;;;;;;;;;;5013795;28;19914;-77
2022/12/08 14:35:23;;;;;;;;;;;;;;;;;;5013504;28;20012;-78
2022/12/08 14:37:49;;;;;;;;;;;;;;;;;;5013538;28;19910;-77
2022/12/08 14:40:15;;;;;;;;;;;;;;;;;;5013712;28;19910;-77
2022/12/08 14:42:41;;;;;;;;;;;;;;;;;;5011796;28;19913;-77
2022/12/08 14:45:07;;;;;;;;;;;;;;;;;;5012151;28;19925;-77
2022/12/08 14:47:33;;;;;;;;;;;;;;;;;;5012268;28;19917;-77
2022/12/08 14:49:59;;;;;;;;;;;;;;;;;;4999405;28;20020;-78
2022/12/08 14:52:25;;;;;;;;;;;;;;;;;;4992502;28;19909;-78
2022/12/08 14:54:50;;;;;;;;;;;;;;;;;;4993512;28;19964;-78
2022/12/08 14:57:16;;;;;;;;;;;;;;;;;;4994423;28;19939;-79
2022/12/08 14:59:42;;;;;;;;;;;;;;;;;;4993716;28;19906;-78
2022/12/08 15:02:08;;;;;;;;;;;;;;;;;;5008404;28;20008;-78
2022/12/08 15:04:34;;;;;;;;;;;;;;;;;;4993030;28;19906;-78
2022/12/08 15:07:00;;;;;;;;;;;;;;;;;;5008242;28;19932;-78
2022/12/08 15:09:26;;;;;;;;;;;;;;;;;;5008339;28;19913;-78
2022/12/08 15:11:52;;;;;;;;;;;;;;;;;;5002117;28;19933;-79
2022/12/08 15:14:17;;;;;;;;;;;;;;;;;;5022546;28;19941;-78
2022/12/08 15:16:43;;;;;;;;;;;;;;;;;;4997168;28;20328;-79
2022/12/08 15:19:09;;;;;;;;;;;;;;;;;;4993367;28;19910;-78
2022/12/08 15:21:35;;;;;;;;;;;;;;;;;;4993301;28;19910;-78
2022/12/08 15:24:01;;;;;;;;;;;;;;;;;;4993233;28;20478;-78
2022/12/08 15:26:27;;;;;;;;;;;;;;;;;;4993027;28;19917;-78
2022/12/08 15:28:53;;;;;;;;;;;;;;;;;;5008169;28;20128;-78
2022/12/08 15:31:19;;;;;;;;;;;;;;;;;;5008325;28;19969;-78
2022/12/08 15:33:44;;;;;;;;;;;;;;;;;;4993166;28;19910;-78
2022/12/08 15:36:10;;;;;;;;;;;;;;;;;;4992122;28;20378;-78
2022/12/08 15:38:36;;;;;;;;;;;;;;;;;;4992997;28;20006;-78
2022/12/08 15:41:02;;;;;;;;;;;;;;;;;;5007844;28;19909;-78
2022/12/08 15:43:28;;;;;;;;;;;;;;;;;;5008301;28;19917;-79
2022/12/08 15:45:54;;;;;;;;;;;;;;;;;;5008161;28;19909;-78
2022/12/08 15:48:20;;;;;;;;;;;;;;;;;;4992950;28;19910;-78
2022/12/08 15:50:46;;;;;;;;;;;;;;;;;;5008417;28;19910;-78
2022/12/08 15:53:12;;;;;;;;;;;;;;;;;;5008124;28;19991;-79
2022/12/08 15:55:38;;;;;;;;;;;;;;;;;;5008052;28;20435;-79
2022/12/08 15:58:04;;;;;;;;;;;;;;;;;;4992860;28;19914;-78
2022/12/08 16:00:30;;;;;;;;;;;;;;;;;;4992940;28;19961;-78
2022/12/08 16:02:56;;;;;;;;;;;;;;;;;;5009316;28;19910;-77
2022/12/08 16:05:22;;;;;;;;;;;;;;;;;;4996977;28;19910;-78
2022/12/08 16:07:48;;;;;;;;;;;;;;;;;;5011967;28;19933;-78
2022/12/08 16:10:15;;;;;;;;;;;;;;;;;;5012292;28;19909;-79
2022/12/08 16:15:26;;;;;;;;;;;;;;;;;;4996728;28;20282;-78
2022/12/08 16:17:52;;;;;;;;;;;;;;;;;;5011731;28;19910;-79
2022/12/08 16:20:18;;;;;;;;;;;;;;;;;;4996743;28;19906;-79
2022/12/08 16:22:44;;;;;;;;;;;;;;;;;;5011815;28;20290;-78
2022/12/08 16:25:11;;;;;;;;;;;;;;;;;;4996493;28;19910;-78
2022/12/08 16:27:37;;;;;;;;;;;;;;;;;;5011644;28;19910;-78
2022/12/08 16:30:03;;;;;;;;;;;;;;;;;;4996738;28;19920;-78
2022/12/08 16:32:29;;;;;;;;;;;;;;;;;;4996579;28;20309;-78
2022/12/08 16:34:55;;;;;;;;;;;;;;;;;;5011444;28;19914;-78
2022/12/08 16:37:21;;;;;;;;;;;;;;;;;;5011489;28;19917;-78
2022/12/08 16:39:48;;;;;;;;;;;;;;;;;;4995935;28;19957;-78
2022/12/08 16:44:59;;;;;;;;;;;;;;;;;;4996206;28;19917;-79
2022/12/08 16:47:25;;;;;;;;;;;;;;;;;;5011302;28;19909;-78
2022/12/08 16:49:51;;;;;;;;;;;;;;;;;;4996228;28;19916;-78